Time;durP1;ratioP1;P1;durP2;ratioP2;P2;SDS_P1;SDS_P2;PMS_P1;PMS_P2;Temp;Humidity;BMP_temperature;BMP_pressure;BME280_temperature;BME280_humidity;BME280_pressure;Samples;Min_cycle;Max_cycle;Signal;HPM_P1;HPM_P2
2022/01/04 00:04:00;;;;;;;19.20;5.68;;;;;;;7.32;100.00;99876.34;10141661;28;20042;-64
2022/01/04 00:09:01;;;;;;;16.42;5.75;;;;;;;7.28;100.00;99878.09;10140439;28;20070;-62
2022/01/04 00:13:57;;;;;;;25.77;6.88;;;;;;;7.25;100.00;99884.16;10145116;28;20074;-66
2022/01/04 00:18:54;;;;;;;22.98;6.88;;;;;;;7.25;100.00;99881.44;10151125;28;20496;-66
2022/01/04 00:23:50;;;;;;;20.15;6.88;;;;;;;7.29;100.00;99866.09;10141511;28;20077;-64
2022/01/04 00:28:47;;;;;;;20.67;7.68;;;;;;;7.26;100.00;99855.06;10150312;28;20042;-64
2022/01/04 00:33:43;;;;;;;22.65;6.82;;;;;;;7.25;100.00;99859.69;10144409;28;20066;-66
2022/01/04 00:38:40;;;;;;;19.52;7.28;;;;;;;7.29;100.00;99843.56;10146420;28;20101;-66
2022/01/04 00:43:37;;;;;;;23.67;7.57;;;;;;;7.26;100.00;99839.53;10141269;28;20046;-63
2022/01/04 00:53:29;;;;;;;18.50;7.07;;;;;;;7.24;100.00;99825.47;10143128;28;20089;-63
2022/01/04 00:58:26;;;;;;;20.33;7.18;;;;;;;7.24;100.00;99827.38;10142290;28;20080;-63
2022/01/04 01:03:22;;;;;;;19.58;7.88;;;;;;;7.19;100.00;99811.22;10144537;28;20073;-63
2022/01/04 01:08:19;;;;;;;19.35;8.27;;;;;;;7.20;100.00;99796.53;10143439;28;20069;-63
2022/01/04 01:13:16;;;;;;;20.92;9.13;;;;;;;7.20;100.00;99791.88;10145126;28;20046;-63
2022/01/04 01:18:15;;;;;;;23.85;8.15;;;;;;;7.19;100.00;99790.25;10145748;28;20061;-66
2022/01/04 01:23:12;;;;;;;22.23;8.13;;;;;;;7.21;100.00;99779.88;10145509;28;20084;-66
2022/01/04 01:28:08;;;;;;;20.70;8.05;;;;;;;7.26;100.00;99777.00;10141845;28;20077;-64
2022/01/04 01:33:05;;;;;;;23.88;7.68;;;;;;;7.20;100.00;99781.00;10136962;28;20104;-63
2022/01/04 01:38:02;;;;;;;32.40;8.60;;;;;;;7.20;100.00;99764.69;10134527;28;20619;-63
2022/01/04 01:42:58;;;;;;;27.70;7.95;;;;;;;7.25;100.00;99766.47;10136901;28;20493;-63
2022/01/04 01:47:54;;;;;;;26.42;8.95;;;;;;;7.25;100.00;99750.94;10139909;28;20058;-66
2022/01/04 01:52:53;;;;;;;20.17;9.02;;;;;;;7.26;100.00;99740.84;10145045;28;20046;-67
2022/01/04 01:57:50;;;;;;;17.83;6.80;;;;;;;7.30;100.00;99747.25;10140887;28;20547;-66
2022/01/04 02:02:46;;;;;;;20.55;8.05;;;;;;;7.27;100.00;99754.13;10143455;28;20078;-64
2022/01/04 02:07:45;;;;;;;19.33;7.25;;;;;;;7.25;100.00;99740.06;10135666;28;20540;-66
2022/01/04 02:12:49;;;;;;;21.23;7.38;;;;;;;7.28;100.00;99723.09;10146220;28;20084;-66
2022/01/04 02:17:46;;;;;;;22.13;8.75;;;;;;;7.31;100.00;99717.03;10132730;28;20058;-66
2022/01/04 02:22:43;;;;;;;18.45;7.95;;;;;;;7.33;100.00;99708.53;10137212;28;20097;-66
2022/01/04 02:27:40;;;;;;;28.15;9.27;;;;;;;7.33;100.00;99709.38;10134697;28;20133;-63
2022/01/04 02:32:37;;;;;;;17.45;8.38;;;;;;;7.29;100.00;99692.09;10138811;28;20042;-63
2022/01/04 02:37:33;;;;;;;27.73;9.13;;;;;;;7.32;100.00;99675.13;10144298;28;20054;-66
2022/01/04 02:42:30;;;;;;;25.05;9.90;;;;;;;7.27;100.00;99671.78;10041764;28;20045;-66
2022/01/04 02:47:28;;;;;;;30.33;10.27;;;;;;;7.30;100.00;99680.06;10035447;28;20050;-68
2022/01/04 02:52:24;;;;;;;23.15;9.52;;;;;;;7.30;100.00;99666.47;10046169;28;20041;-68
2022/01/04 02:57:21;;;;;;;17.50;8.93;;;;;;;7.29;100.00;99654.03;10031120;28;20092;-68
2022/01/04 03:02:18;;;;;;;24.75;11.27;;;;;;;7.27;100.00;99658.19;10133796;28;20096;-67
2022/01/04 03:07:15;;;;;;;25.23;10.93;;;;;;;7.26;100.00;99643.75;10133796;28;20042;-67
2022/01/04 03:12:12;;;;;;;23.45;10.52;;;;;;;7.28;100.00;99636.09;10145994;28;20059;-65
2022/01/04 03:17:08;;;;;;;22.00;10.65;;;;;;;7.29;100.00;99637.69;10134031;28;20085;-63
2022/01/04 03:22:06;;;;;;;26.67;11.05;;;;;;;7.28;100.00;99627.94;10145007;28;20459;-66
2022/01/04 03:27:02;;;;;;;19.83;11.77;;;;;;;7.25;100.00;99615.00;10140823;28;20070;-62
2022/01/04 03:31:59;;;;;;;23.13;11.18;;;;;;;7.28;100.00;99603.47;10146082;28;20050;-62
2022/01/04 03:36:55;;;;;;;30.17;12.25;;;;;;;7.25;100.00;99597.88;10146495;28;20467;-62
2022/01/04 03:41:52;;;;;;;23.58;12.30;;;;;;;7.22;100.00;99599.34;10148658;28;20082;-65
2022/01/04 03:46:51;;;;;;;25.73;12.35;;;;;;;7.23;100.00;99579.16;10088049;28;21763;-64
2022/01/04 03:51:48;;;;;;;26.95;14.13;;;;;;;7.24;100.00;99575.34;10027808;28;20039;-66
2022/01/04 03:56:44;;;;;;;29.73;12.80;;;;;;;7.20;100.00;99563.50;10076170;28;20081;-63
2022/01/04 04:01:41;;;;;;;31.33;13.30;;;;;;;7.17;100.00;99555.97;10011457;28;20038;-63
2022/01/04 04:06:37;;;;;;;28.00;12.95;;;;;;;7.18;100.00;99560.31;10146635;28;20566;-67
2022/01/04 04:11:34;;;;;;;31.13;13.77;;;;;;;7.31;100.00;99547.63;10148128;28;20104;-67
2022/01/04 04:16:33;;;;;;;28.83;13.13;;;;;;;7.28;100.00;99549.09;10141095;28;20081;-67
2022/01/04 04:21:29;;;;;;;27.55;12.27;;;;;;;7.24;100.00;99537.28;10137664;28;20141;-68
2022/01/04 04:26:26;;;;;;;27.95;13.82;;;;;;;7.26;100.00;99524.13;10143293;28;20102;-67
2022/01/04 04:31:22;;;;;;;29.38;13.30;;;;;;;7.27;100.00;99512.16;10144409;28;20077;-67
2022/01/04 04:36:19;;;;;;;34.50;14.57;;;;;;;7.30;100.00;99497.91;10097340;28;20053;-68
2022/01/04 04:41:15;;;;;;;25.05;12.65;;;;;;;7.28;100.00;99505.59;9989672;28;20138;-62
2022/01/04 04:46:12;;;;;;;27.75;13.13;;;;;;;7.22;100.00;99501.47;10145029;28;20050;-62
2022/01/04 04:51:08;;;;;;;32.80;14.25;;;;;;;7.24;100.00;99493.78;10140681;28;20078;-63
2022/01/04 04:56:05;;;;;;;29.10;13.00;;;;;;;7.25;100.00;99478.25;10141482;28;20472;-64
2022/01/04 05:01:02;;;;;;;23.25;12.95;;;;;;;7.26;100.00;99480.63;10144584;28;20140;-64
2022/01/04 05:05:59;;;;;;;26.40;13.00;;;;;;;7.24;100.00;99471.22;10131609;28;20057;-63
2022/01/04 05:10:57;;;;;;;29.83;14.10;;;;;;;7.21;100.00;99456.34;10139000;28;20131;-65
2022/01/04 05:15:54;;;;;;;25.17;13.43;;;;;;;7.15;100.00;99457.66;10127730;28;20516;-65
2022/01/04 05:20:50;;;;;;;34.72;13.98;;;;;;;7.10;100.00;99452.38;10128341;28;20074;-65
2022/01/04 05:25:47;;;;;;;33.63;15.65;;;;;;;7.09;100.00;99453.53;10128669;28;20046;-65
2022/01/04 05:30:44;;;;;;;26.08;14.60;;;;;;;7.15;100.00;99444.09;10126116;28;20420;-65
2022/01/04 05:35:40;;;;;;;32.17;15.63;;;;;;;7.17;100.00;99436.38;10120982;28;20707;-67
2022/01/04 05:40:38;;;;;;;28.13;14.88;;;;;;;7.14;100.00;99429.66;10130281;28;20416;-68
2022/01/04 05:45:35;;;;;;;31.98;15.27;;;;;;;7.20;100.00;99422.16;10125058;28;20055;-68
2022/01/04 05:50:32;;;;;;;26.35;16.00;;;;;;;7.21;100.00;99418.28;10137692;28;20780;-70
2022/01/04 05:55:28;;;;;;;26.63;15.68;;;;;;;7.23;100.00;99437.78;10132167;28;20145;-71
2022/01/04 06:00:25;;;;;;;30.20;16.80;;;;;;;7.26;100.00;99428.97;10120311;28;20100;-69
2022/01/04 06:05:21;;;;;;;28.60;17.20;;;;;;;7.29;100.00;99420.19;10127773;28;20122;-69
2022/01/04 06:10:18;;;;;;;30.65;16.98;;;;;;;7.26;100.00;99420.81;10133370;28;20122;-69
2022/01/04 06:15:15;;;;;;;34.13;17.13;;;;;;;7.14;100.00;99393.53;10126164;28;20039;-72
2022/01/04 06:20:14;;;;;;;30.10;15.95;;;;;;;7.10;100.00;99400.75;10126477;28;20073;-70
2022/01/04 06:25:16;;;;;;;33.78;18.38;;;;;;;7.15;100.00;99404.09;10134192;28;20069;-70
2022/01/04 06:30:15;;;;;;;34.65;17.35;;;;;;;7.19;100.00;99387.13;10141700;28;20050;-70
2022/01/04 06:35:13;;;;;;;40.30;19.85;;;;;;;7.19;100.00;99382.47;10134018;28;20070;-70
2022/01/04 06:40:11;;;;;;;38.85;20.50;;;;;;;7.17;100.00;99379.28;10117888;28;20456;-70
2022/01/04 06:45:08;;;;;;;39.55;20.30;;;;;;;7.18;100.00;99370.03;10135838;28;20078;-71
2022/01/04 06:50:05;;;;;;;37.75;19.40;;;;;;;7.18;100.00;99372.75;10153413;28;20512;-69
2022/01/04 06:55:02;;;;;;;37.35;19.58;;;;;;;7.21;100.00;99368.56;10138883;28;20770;-70
2022/01/04 06:59:59;;;;;;;34.47;18.23;;;;;;;7.10;100.00;99359.97;10149467;28;20050;-70
2022/01/04 07:04:55;;;;;;;36.47;19.38;;;;;;;7.11;100.00;99369.75;10142501;28;20080;-69
2022/01/04 07:09:52;;;;;;;36.60;19.17;;;;;;;7.21;100.00;99363.13;10145754;28;20096;-70
2022/01/04 07:14:48;;;;;;;46.97;20.42;;;;;;;7.20;100.00;99340.59;10154787;28;20073;-70
2022/01/04 07:19:46;;;;;;;38.90;20.23;;;;;;;7.20;100.00;99335.16;10141346;28;20104;-70
2022/01/04 07:24:44;;;;;;;41.10;20.13;;;;;;;7.22;100.00;99349.22;9956449;28;20044;-70
2022/01/04 07:29:41;;;;;;;39.60;21.33;;;;;;;7.29;100.00;99344.06;9952190;28;20076;-70
2022/01/04 07:34:37;;;;;;;38.25;19.73;;;;;;;7.25;100.00;99348.56;10115682;28;20605;-70
2022/01/04 07:39:34;;;;;;;31.35;17.80;;;;;;;7.23;100.00;99334.50;10135710;28;20101;-69
2022/01/04 07:44:31;;;;;;;39.83;20.10;;;;;;;7.24;100.00;99338.00;10149753;28;20452;-70
2022/01/04 07:49:27;;;;;;;31.65;16.80;;;;;;;7.30;100.00;99334.75;10143262;28;20077;-69
2022/01/04 07:54:24;;;;;;;48.15;19.83;;;;;;;7.26;100.00;99339.25;10147503;28;20384;-68
2022/01/04 07:59:21;;;;;;;44.88;20.05;;;;;;;7.14;100.00;99325.59;10144520;28;20049;-70
2022/01/04 08:04:17;;;;;;;42.80;20.20;;;;;;;7.26;100.00;99322.94;10128701;28;20062;-67
2022/01/04 08:09:14;;;;;;;36.95;20.30;;;;;;;7.31;100.00;99322.78;10123593;28;20152;-71
2022/01/04 08:14:10;;;;;;;36.47;18.25;;;;;;;7.28;100.00;99315.25;10134389;28;20046;-69
2022/01/04 08:19:08;;;;;;;34.72;19.20;;;;;;;7.33;100.00;99311.56;10136171;28;20047;-69
2022/01/04 08:24:05;;;;;;;33.83;16.92;;;;;;;7.35;100.00;99310.09;10131083;28;20101;-69
2022/01/04 08:29:02;;;;;;;36.17;18.52;;;;;;;7.37;100.00;99291.53;10127198;28;20056;-69
2022/01/04 08:33:59;;;;;;;32.05;18.52;;;;;;;7.32;100.00;99286.28;10140505;28;20082;-70
2022/01/04 08:38:56;;;;;;;35.50;19.52;;;;;;;7.35;100.00;99282.91;10139872;28;20535;-70
2022/01/04 08:43:53;;;;;;;34.53;20.13;;;;;;;7.41;100.00;99280.00;10145242;28;20034;-68
2022/01/04 08:48:49;;;;;;;35.58;19.15;;;;;;;7.32;100.00;99266.47;10147789;28;20039;-69
2022/01/04 08:53:46;;;;;;;30.13;18.95;;;;;;;7.44;100.00;99257.59;10134849;28;20078;-69
2022/01/04 08:58:42;;;;;;;30.48;18.60;;;;;;;7.34;100.00;99264.22;10133351;28;20042;-69
2022/01/04 09:03:39;;;;;;;30.85;17.85;;;;;;;7.33;100.00;99263.44;10144357;28;20077;-68
2022/01/04 09:08:36;;;;;;;40.83;20.70;;;;;;;7.38;100.00;99262.44;10148679;28;20129;-69
2022/01/04 09:13:38;;;;;;;33.53;20.52;;;;;;;7.34;100.00;99259.56;10153942;28;20445;-69
2022/01/04 09:18:49;;;;;;;39.78;21.95;;;;;;;7.26;100.00;99235.94;10134166;28;20042;-69
2022/01/04 09:23:53;;;;;;;38.05;20.98;;;;;;;7.28;100.00;99233.69;10140752;28;20050;-69
2022/01/04 09:28:50;;;;;;;31.70;20.75;;;;;;;7.27;100.00;99236.78;10141933;28;20050;-70
2022/01/04 09:33:47;;;;;;;32.60;20.15;;;;;;;7.31;100.00;99238.50;10133256;28;20061;-70
2022/01/04 09:38:59;;;;;;;36.13;20.05;;;;;;;7.35;100.00;99231.25;10125628;28;20594;-68
2022/01/04 09:43:56;;;;;;;35.22;19.23;;;;;;;7.36;100.00;99241.00;10126545;28;20057;-68
2022/01/04 09:48:53;;;;;;;36.97;19.42;;;;;;;7.36;100.00;99243.72;10124979;28;20046;-70
2022/01/04 09:53:50;;;;;;;29.85;18.42;;;;;;;7.41;100.00;99239.22;10128887;28;20463;-69
2022/01/04 09:58:47;;;;;;;38.05;19.15;;;;;;;7.43;100.00;99240.47;10127805;28;20054;-69
2022/01/04 10:03:45;;;;;;;28.52;18.25;;;;;;;7.50;100.00;99239.94;9989607;28;20493;-69
2022/01/04 10:08:59;;;;;;;35.95;18.20;;;;;;;7.50;100.00;99229.06;10067179;28;20134;-69
2022/01/04 10:13:58;;;;;;;29.60;18.30;;;;;;;7.55;100.00;99231.56;10126736;28;20562;-71
2022/01/04 10:18:55;;;;;;;31.02;17.67;;;;;;;7.53;100.00;99228.38;10142847;28;20085;-71
2022/01/04 10:23:54;;;;;;;31.13;18.52;;;;;;;7.62;100.00;99207.34;10137010;28;20046;-72
2022/01/04 10:28:52;;;;;;;29.63;16.77;;;;;;;7.49;100.00;99202.97;10132259;28;20100;-71
2022/01/04 10:33:54;;;;;;;27.40;16.80;;;;;;;7.63;100.00;99194.53;10133398;28;20081;-70
2022/01/04 10:38:51;;;;;;;24.60;15.65;;;;;;;7.55;100.00;99188.06;10145036;28;20050;-71
2022/01/04 10:43:52;;;;;;;31.30;18.35;;;;;;;7.50;100.00;99186.34;10147586;28;20424;-69
2022/01/04 10:48:50;;;;;;;29.85;18.05;;;;;;;7.48;100.00;99198.69;10150334;28;20051;-69
2022/01/04 10:53:54;;;;;;;27.73;15.35;;;;;;;7.31;100.00;99178.69;10140068;28;20099;-68
2022/01/04 10:58:53;;;;;;;14.70;7.45;;;;;;;7.03;100.00;99180.34;10142071;28;20082;-69
2022/01/04 11:03:53;;;;;;;17.65;7.25;;;;;;;6.93;100.00;99157.88;10153397;28;20081;-68
2022/01/04 11:08:50;;;;;;;15.20;7.22;;;;;;;6.75;100.00;99161.81;10144099;28;20567;-69
2022/01/04 11:13:48;;;;;;;18.73;9.35;;;;;;;6.65;100.00;99156.78;10138634;28;20050;-69
2022/01/04 11:18:50;;;;;;;13.77;7.10;;;;;;;6.61;100.00;99159.38;10138833;28;20053;-68
2022/01/04 11:23:48;;;;;;;16.25;9.52;;;;;;;6.61;100.00;99161.28;10136750;28;20046;-68
2022/01/04 11:28:47;;;;;;;25.98;14.32;;;;;;;6.61;100.00;99145.78;10141498;28;20070;-69
2022/01/04 11:33:52;;;;;;;28.83;13.05;;;;;;;6.66;100.00;99136.66;10137158;28;20047;-68
2022/01/04 11:38:49;;;;;;;19.90;11.27;;;;;;;6.71;100.00;99141.91;10132276;28;20046;-68
2022/01/04 11:43:45;;;;;;;17.65;9.05;;;;;;;6.67;100.00;99140.97;10134417;28;20531;-69
2022/01/04 11:48:43;;;;;;;13.63;6.93;;;;;;;6.65;100.00;99140.50;10125427;28;20046;-69
2022/01/04 11:54:19;;;;;;;9.02;2.90;;;;;;;6.46;100.00;99128.16;10130259;28;20499;-69
2022/01/04 11:59:21;;;;;;;8.60;2.60;;;;;;;6.45;100.00;99115.72;10130419;28;20566;-69
2022/01/04 12:04:48;;;;;;;5.90;2.13;;;;;;;6.40;100.00;99113.16;10145302;28;20559;-69
2022/01/04 12:09:45;;;;;;;6.80;1.90;;;;;;;6.31;100.00;99107.81;10130089;28;20046;-69
2022/01/04 12:14:42;;;;;;;9.85;2.00;;;;;;;6.27;100.00;99115.03;10131876;28;20042;-69
2022/01/04 12:19:50;;;;;;;8.48;2.55;;;;;;;6.24;100.00;99110.25;10134142;28;20050;-69
2022/01/04 12:24:47;;;;;;;8.73;2.47;;;;;;;6.26;100.00;99112.63;10144412;28;20115;-69
2022/01/04 12:29:44;;;;;;;7.55;2.40;;;;;;;6.29;100.00;99112.00;10135707;28;20100;-69
2022/01/04 12:34:53;;;;;;;10.85;2.97;;;;;;;6.26;100.00;99128.91;10140615;28;20042;-69
2022/01/04 12:39:51;;;;;;;11.82;4.03;;;;;;;6.25;100.00;99130.03;10131922;28;20088;-69
2022/01/04 12:44:55;;;;;;;5.63;1.70;;;;;;;6.08;100.00;99149.91;10129108;28;20086;-69
2022/01/04 12:49:56;;;;;;;2.72;0.82;;;;;;;5.88;100.00;99145.97;10132349;28;20049;-69
2022/01/04 12:54:53;;;;;;;2.85;1.05;;;;;;;5.77;100.00;99161.00;10119471;28;20396;-69
2022/01/04 12:59:55;;;;;;;6.20;1.17;;;;;;;5.74;100.00;99145.38;10126395;28;20073;-70
2022/01/04 13:04:57;;;;;;;6.30;1.40;;;;;;;5.88;100.00;99152.19;10128369;28;20136;-70
2022/01/04 13:10:07;;;;;;;5.07;0.90;;;;;;;5.92;100.00;99157.78;10142616;28;20050;-70
2022/01/04 13:15:15;;;;;;;6.43;0.75;;;;;;;5.84;100.00;99161.28;10129937;28;20500;-70
2022/01/04 13:20:14;;;;;;;6.22;1.55;;;;;;;5.78;100.00;99162.59;10139005;28;20049;-70
2022/01/04 13:25:10;;;;;;;7.05;1.90;;;;;;;5.64;100.00;99185.28;10133748;28;20060;-69
2022/01/04 13:30:10;;;;;;;4.70;2.40;;;;;;;5.61;100.00;99179.69;10139153;28;20109;-69
2022/01/04 13:35:33;;;;;;;7.65;3.63;;;;;;;5.56;100.00;99199.63;10137559;28;20065;-69
2022/01/04 13:40:34;;;;;;;4.90;2.90;;;;;;;5.51;100.00;99207.16;10136678;28;20670;-69
2022/01/04 13:45:52;;;;;;;4.88;2.53;;;;;;;5.44;100.00;99234.75;10143425;28;20049;-70
2022/01/04 13:50:49;;;;;;;4.82;2.78;;;;;;;5.14;100.00;99242.69;10130176;28;20050;-69
2022/01/04 13:55:51;;;;;;;4.55;2.05;;;;;;;5.15;100.00;99249.72;10138105;28;20050;-69
2022/01/04 14:00:47;;;;;;;3.50;2.08;;;;;;;5.27;100.00;99239.06;10142804;28;20510;-69
2022/01/04 14:05:44;;;;;;;4.25;2.08;;;;;;;5.30;100.00;99244.94;10130020;28;20153;-70
2022/01/04 14:10:45;;;;;;;4.53;2.17;;;;;;;5.35;100.00;99233.94;10147690;28;20046;-70
2022/01/04 14:16:12;;;;;;;2.60;0.90;;;;;;;5.32;100.00;99243.50;10138334;28;20153;-69
2022/01/04 14:21:09;;;;;;;1.65;0.38;;;;;;;5.18;100.00;99243.66;10095510;28;20071;-70
2022/01/04 14:26:06;;;;;;;1.05;0.25;;;;;;;5.14;100.00;99237.28;9982504;28;20042;-69
2022/01/04 14:31:03;;;;;;;5.32;1.58;;;;;;;5.08;100.00;99254.78;10136103;28;20058;-69
2022/01/04 14:36:00;;;;;;;2.65;0.60;;;;;;;5.05;100.00;99233.75;10136152;28;20089;-69
2022/01/04 14:40:57;;;;;;;5.88;1.30;;;;;;;5.08;100.00;99243.97;10142816;28;20105;-69
2022/01/04 14:45:53;;;;;;;2.45;0.80;;;;;;;4.98;100.00;99244.28;10129566;28;20043;-70
2022/01/04 14:50:50;;;;;;;3.78;1.20;;;;;;;4.79;100.00;99237.22;10145853;28;20498;-68
2022/01/04 14:55:46;;;;;;;3.33;0.90;;;;;;;4.72;100.00;99236.91;10133239;28;20096;-69
2022/01/04 15:00:58;;;;;;;5.93;0.90;;;;;;;4.78;100.00;99219.41;10131702;28;20676;-68
2022/01/04 15:05:55;;;;;;;3.95;0.52;;;;;;;4.70;100.00;99233.69;10121479;28;20046;-68
2022/01/04 15:10:51;;;;;;;4.50;0.90;;;;;;;4.75;100.00;99241.66;10126067;28;20702;-68
2022/01/04 15:15:48;;;;;;;5.30;0.75;;;;;;;4.71;100.00;99240.72;10123615;28;20089;-70
2022/01/04 15:20:44;;;;;;;3.83;1.10;;;;;;;4.51;100.00;99263.75;10128578;28;20093;-69
2022/01/04 15:25:41;;;;;;;6.82;1.10;;;;;;;4.47;100.00;99283.63;10131932;28;20130;-68
2022/01/04 15:30:37;;;;;;;2.95;1.00;;;;;;;4.51;100.00;99284.59;10131851;28;20077;-69
2022/01/04 15:35:34;;;;;;;3.72;1.08;;;;;;;4.53;100.00;99276.97;10135457;28;20100;-69
2022/01/04 15:40:30;;;;;;;5.70;1.02;;;;;;;4.50;100.00;99272.16;10133977;28;20525;-69
2022/01/04 15:45:27;;;;;;;4.78;0.93;;;;;;;4.54;100.00;99283.97;10137500;28;20067;-69
2022/01/04 15:50:24;;;;;;;11.40;1.83;;;;;;;4.57;100.00;99283.34;10145594;28;20646;-69
2022/01/04 15:55:21;;;;;;;6.38;0.90;;;;;;;4.56;100.00;99287.16;10137205;28;20077;-69
2022/01/04 16:00:19;;;;;;;6.45;0.65;;;;;;;4.54;100.00;99289.38;10132850;28;20824;-69
2022/01/04 16:05:16;;;;;;;10.10;1.55;;;;;;;4.66;100.00;99286.88;10128985;28;20391;-69
2022/01/04 16:10:12;;;;;;;4.15;0.73;;;;;;;4.45;100.00;99288.56;10137530;28;20105;-69
2022/01/04 16:15:13;;;;;;;7.30;1.20;;;;;;;4.59;100.00;99294.66;10130171;28;20561;-69
2022/01/04 16:25:25;;;;;;;5.15;0.90;;;;;;;4.63;100.00;99317.28;10132832;28;20707;-69
2022/01/04 16:30:22;;;;;;;5.68;1.13;;;;;;;4.55;100.00;99323.44;10133605;28;20537;-68
2022/01/04 16:35:19;;;;;;;5.95;1.00;;;;;;;4.56;100.00;99315.03;10132206;28;20050;-68
2022/01/04 16:40:18;;;;;;;4.30;0.90;;;;;;;4.49;100.00;99324.72;10136237;28;20071;-68
2022/01/04 16:45:14;;;;;;;7.22;1.13;;;;;;;4.32;100.00;99331.63;10135784;28;20510;-68
2022/01/04 16:50:13;;;;;;;6.68;1.00;;;;;;;4.42;100.00;99338.69;10131459;28;20086;-68
2022/01/04 16:55:16;;;;;;;11.60;1.30;;;;;;;4.36;100.00;99346.16;10121141;28;20046;-68
2022/01/04 17:00:32;;;;;;;7.85;1.02;;;;;;;4.29;100.00;99356.59;10143031;28;20060;-68
2022/01/04 17:05:29;;;;;;;5.88;1.20;;;;;;;4.27;100.00;99366.94;10128638;28;20418;-69
2022/01/04 17:10:28;;;;;;;7.85;1.40;;;;;;;4.37;100.00;99366.69;10124754;28;20056;-68
2022/01/04 17:15:35;;;;;;;5.70;1.45;;;;;;;4.35;100.00;99379.72;9946781;28;20176;-68
2022/01/04 17:20:32;;;;;;;8.00;1.90;;;;;;;4.23;100.00;99365.97;10162324;28;20590;-68
2022/01/04 17:25:29;;;;;;;6.28;1.63;;;;;;;4.15;100.00;99372.09;10122734;28;20402;-69
2022/01/04 17:30:27;;;;;;;7.78;1.40;;;;;;;4.19;100.00;99376.59;9963212;28;20141;-68
2022/01/04 17:35:26;;;;;;;8.90;1.67;;;;;;;4.25;100.00;99384.56;10130261;28;20113;-68
2022/01/04 17:40:22;;;;;;;7.15;1.75;;;;;;;4.15;100.00;99391.03;10130576;28;20050;-68
2022/01/04 17:45:20;;;;;;;7.90;1.50;;;;;;;4.00;100.00;99390.28;10115861;28;20089;-68
2022/01/04 17:50:19;;;;;;;9.00;2.22;;;;;;;3.98;100.00;99387.09;10122382;28;20541;-68
2022/01/04 17:55:16;;;;;;;11.30;2.30;;;;;;;3.84;100.00;99391.75;10121556;28;20557;-67
2022/01/04 18:00:13;;;;;;;12.15;2.13;;;;;;;3.80;100.00;99401.56;10117181;28;20115;-69
2022/01/04 18:05:10;;;;;;;8.10;2.20;;;;;;;3.81;100.00;99389.66;10132907;28;20618;-68
2022/01/04 18:10:08;;;;;;;17.83;2.55;;;;;;;3.70;100.00;99391.00;10127868;28;20053;-68
2022/01/04 18:15:05;;;;;;;9.43;1.90;;;;;;;3.63;100.00;99390.63;10135233;28;20053;-68
2022/01/04 18:20:04;;;;;;;9.15;1.88;;;;;;;3.63;100.00;99390.63;9883999;29;20496;-69
2022/01/04 18:25:01;;;;;;;10.13;2.97;;;;;;;3.65;100.00;99393.81;9873986;28;20645;-68
2022/01/04 18:29:58;;;;;;;5.15;1.40;;;;;;;3.58;100.00;99383.41;9884818;29;20099;-70
2022/01/04 18:34:59;;;;;;;7.85;2.00;;;;;;;3.50;100.00;99387.63;10125707;28;20054;-68
2022/01/04 18:39:56;;;;;;;7.45;1.80;;;;;;;3.51;100.00;99389.22;10123979;28;20050;-67
2022/01/04 18:44:52;;;;;;;10.20;1.60;;;;;;;3.50;100.00;99381.41;10121529;28;20599;-65
2022/01/04 18:49:49;;;;;;;15.43;1.92;;;;;;;3.42;100.00;99391.03;10114049;28;20134;-67
2022/01/04 18:54:45;;;;;;;10.55;1.50;;;;;;;3.41;100.00;99384.03;10114949;28;20085;-67
2022/01/04 18:59:42;;;;;;;8.70;1.80;;;;;;;3.32;100.00;99380.47;10116960;28;20038;-68
2022/01/04 19:04:40;;;;;;;9.48;1.15;;;;;;;3.25;100.00;99385.44;10134855;28;20059;-69
2022/01/04 19:09:39;;;;;;;10.55;1.80;;;;;;;3.27;100.00;99383.25;10134417;28;20097;-70
2022/01/04 19:14:36;;;;;;;8.20;1.73;;;;;;;3.25;100.00;99385.44;10126538;28;20078;-69
2022/01/04 19:19:32;;;;;;;10.05;1.45;;;;;;;3.30;100.00;99390.75;10136536;28;20054;-68
2022/01/04 19:24:29;;;;;;;12.88;2.97;;;;;;;3.21;100.00;99389.88;10131288;28;20053;-68
2022/01/04 19:29:26;;;;;;;6.75;1.70;;;;;;;3.23;100.00;99383.06;10128719;28;20098;-69
2022/01/04 19:39:38;;;;;;;12.27;1.55;;;;;;;3.24;100.00;99390.06;9947337;28;20087;-68
2022/01/04 19:44:36;;;;;;;9.50;1.70;;;;;;;3.17;100.00;99385.06;10111329;28;20058;-69
2022/01/04 19:49:33;;;;;;;14.23;2.83;;;;;;;3.20;100.00;99388.25;10124087;28;20058;-68
2022/01/04 19:54:30;;;;;;;14.70;2.20;;;;;;;3.10;100.00;99379.25;10127221;28;20057;-68
2022/01/04 19:59:27;;;;;;;7.20;1.60;;;;;;;3.05;100.00;99382.06;10118839;28;20129;-67
2022/01/04 20:04:23;;;;;;;10.32;2.25;;;;;;;3.07;100.00;99390.66;10133144;28;20587;-66
2022/01/04 20:09:20;;;;;;;13.43;2.28;;;;;;;3.05;100.00;99408.28;10125606;28;20112;-68
2022/01/04 20:14:16;;;;;;;10.77;2.03;;;;;;;3.02;100.00;99406.97;10129253;28;20081;-68
2022/01/04 20:19:13;;;;;;;6.55;1.50;;;;;;;2.94;100.00;99413.06;10123866;28;20039;-68
2022/01/04 20:24:10;;;;;;;8.70;2.13;;;;;;;2.92;100.00;99420.66;10122628;28;20058;-67
2022/01/04 20:29:06;;;;;;;10.68;1.42;;;;;;;2.93;100.00;99427.66;10132346;28;20110;-67
2022/01/04 20:34:03;;;;;;;11.23;2.00;;;;;;;2.85;100.00;99431.03;10117557;28;20073;-67
2022/01/04 20:38:59;;;;;;;11.52;1.63;;;;;;;2.85;100.00;99423.75;10139870;28;20077;-69
2022/01/04 20:43:56;;;;;;;15.23;1.20;;;;;;;2.80;100.00;99436.53;10136586;28;20058;-69
2022/01/04 20:48:52;;;;;;;13.13;2.00;;;;;;;2.82;100.00;99437.03;10138063;28;20722;-69
2022/01/04 20:53:49;;;;;;;8.30;1.60;;;;;;;2.83;100.00;99425.97;10123720;28;20562;-69
2022/01/04 20:58:46;;;;;;;12.80;2.30;;;;;;;2.81;100.00;99424.63;10090685;28;20038;-66
2022/01/04 21:03:42;;;;;;;13.25;1.42;;;;;;;2.70;100.00;99435.63;10092636;28;20046;-66
2022/01/04 21:08:38;;;;;;;10.55;2.60;;;;;;;2.77;100.00;99429.84;10090034;28;20039;-67
2022/01/04 21:13:37;;;;;;;21.67;2.70;;;;;;;2.73;100.00;99439.63;10102269;28;20113;-67
2022/01/04 21:18:34;;;;;;;13.02;2.97;;;;;;;2.71;100.00;99445.31;10092925;28;20042;-66
2022/01/04 21:23:30;;;;;;;11.77;1.65;;;;;;;2.61;100.00;99458.19;10098089;28;20043;-67
2022/01/04 21:28:27;;;;;;;10.30;1.65;;;;;;;2.57;100.00;99449.88;10096908;28;20069;-67
2022/01/04 21:33:25;;;;;;;11.95;1.83;;;;;;;2.62;100.00;99459.78;10074288;28;20166;-66
2022/01/04 21:38:22;;;;;;;10.00;1.85;;;;;;;2.61;100.00;99453.59;10075029;28;20039;-64
2022/01/04 21:43:18;;;;;;;15.07;2.33;;;;;;;2.55;100.00;99449.38;10086404;28;20721;-65
2022/01/04 21:48:15;;;;;;;11.93;1.73;;;;;;;2.58;100.00;99448.78;10088419;28;20077;-65
2022/01/04 21:53:14;;;;;;;12.27;1.63;;;;;;;2.51;100.00;99442.97;10103604;28;20503;-64
2022/01/04 21:58:13;;;;;;;14.25;2.40;;;;;;;2.45;100.00;99438.75;10087116;28;20196;-64
2022/01/04 22:03:10;;;;;;;14.40;1.95;;;;;;;2.36;100.00;99437.81;10095877;28;20055;-67
2022/01/04 22:08:06;;;;;;;14.23;2.83;;;;;;;2.38;100.00;99438.34;10089031;28;20055;-63
2022/01/04 22:13:03;;;;;;;14.77;2.20;;;;;;;2.40;100.00;99431.53;10090082;28;20114;-62
2022/01/04 22:17:59;;;;;;;11.60;2.40;;;;;;;2.37;100.00;99436.72;10085267;28;20058;-61
2022/01/04 22:22:56;;;;;;;9.50;1.60;;;;;;;2.29;100.00;99436.28;10124222;28;20204;-63
2022/01/04 22:27:54;;;;;;;11.73;2.28;;;;;;;2.29;100.00;99430.09;10098543;28;20035;-61
2022/01/04 22:32:51;;;;;;;9.93;2.22;;;;;;;2.33;100.00;99431.13;10095729;28;20050;-66
2022/01/04 22:37:48;;;;;;;11.55;2.42;;;;;;;2.26;100.00;99442.28;10080912;28;20466;-65
2022/01/04 22:42:45;;;;;;;12.85;2.38;;;;;;;2.21;100.00;99444.25;10089178;28;20043;-63
2022/01/04 22:47:43;;;;;;;13.40;2.03;;;;;;;2.26;100.00;99447.66;10127543;28;20057;-64
2022/01/04 22:52:39;;;;;;;12.23;2.53;;;;;;;2.20;100.00;99438.03;10096362;28;20046;-62
2022/01/04 22:57:36;;;;;;;18.90;2.22;;;;;;;2.17;100.00;99433.25;10095636;28;20454;-63
2022/01/04 23:02:33;;;;;;;12.95;2.60;;;;;;;2.15;100.00;99440.81;10085573;28;20086;-65
2022/01/04 23:07:29;;;;;;;12.27;2.35;;;;;;;2.15;100.00;99442.72;10122182;28;20134;-63